Time;durP1;ratioP1;P1;durP2;ratioP2;P2;SDS_P1;SDS_P2;PMS_P1;PMS_P2;Temp;Humidity;BMP_temperature;BMP_pressure;BME280_temperature;BME280_humidity;BME280_pressure;Samples;Min_cycle;Max_cycle;Signal;HPM_P1;HPM_P2
2022/04/02 00:00:41;;;;;;;5.00;1.40;;;;;;;0.67;66.17;100526.84;104888;1279;71461;-72
2022/04/02 00:03:08;;;;;;;4.00;1.20;;;;;;;0.66;66.05;100523.78;104956;1277;71270;-74
2022/04/02 00:05:36;;;;;;;1.80;1.10;;;;;;;0.66;66.24;100520.98;104901;1278;61778;-72
2022/04/02 00:08:03;;;;;;;1.20;0.80;;;;;;;0.66;66.17;100526.39;104956;1277;61146;-72
2022/04/02 00:10:33;;;;;;;2.20;0.80;;;;;;;0.65;66.31;100521.39;104882;1279;74704;-72
2022/04/02 00:12:59;;;;;;;0.90;0.50;;;;;;;0.64;66.39;100514.52;104970;1278;71511;-70
2022/04/02 00:15:26;;;;;;;1.60;0.90;;;;;;;0.65;66.32;100518.15;104909;1278;61286;-72
2022/04/02 00:17:52;;;;;;;1.60;0.80;;;;;;;0.64;66.18;100517.14;104972;1277;62174;-72
2022/04/02 00:20:19;;;;;;;3.00;0.80;;;;;;;0.64;66.28;100518.90;104909;1278;61791;-72
2022/04/02 00:25:32;;;;;;;;;;;;;;;0.62;66.22;100520.95;104947;1279;71351;-73
2022/04/02 00:27:59;;;;;;;2.70;1.30;;;;;;;0.61;66.11;100517.70;104926;1277;72914;-71
2022/04/02 00:30:25;;;;;;;2.70;1.10;;;;;;;0.59;66.14;100515.05;104867;1279;61363;-71
2022/04/02 00:32:52;;;;;;;2.70;1.10;;;;;;;0.59;66.18;100515.45;104970;1279;61761;-71
2022/04/02 00:35:19;;;;;;;2.10;0.90;;;;;;;0.58;66.21;100516.90;104885;1278;74940;-75
2022/04/02 00:37:45;;;;;;;1.70;1.20;;;;;;;0.57;66.22;100516.26;105214;1278;69813;-72
2022/04/02 00:40:12;;;;;;;1.70;0.90;;;;;;;0.57;66.07;100516.11;104892;1277;61226;-73
2022/04/02 00:42:38;;;;;;;2.70;0.90;;;;;;;0.56;66.08;100519.50;104927;1279;61293;-71
2022/04/02 00:45:05;;;;;;;1.40;0.80;;;;;;;0.55;66.23;100522.02;104907;1279;61181;-73
2022/04/02 00:47:33;;;;;;;3.40;1.10;;;;;;;0.53;66.30;100524.59;104969;1278;74940;-73
2022/04/02 00:50:02;;;;;;;4.10;1.20;;;;;;;0.52;66.49;100525.89;104914;1277;71592;-71
2022/04/02 00:52:30;;;;;;;2.00;1.00;;;;;;;0.50;66.64;100531.43;104988;1278;71768;-73
2022/04/02 00:55:00;;;;;;;2.00;0.80;;;;;;;0.48;67.15;100534.02;104816;1279;61155;-72
2022/04/02 00:57:29;;;;;;;2.10;0.80;;;;;;;0.45;67.45;100533.35;104844;1278;61695;-73
2022/04/02 00:59:56;;;;;;;2.60;1.10;;;;;;;0.41;67.48;100530.89;105054;1278;74908;-74
2022/04/02 01:02:23;;;;;;;2.40;1.10;;;;;;;0.41;67.56;100536.61;104890;1277;71581;-71
2022/04/02 01:04:50;;;;;;;2.10;0.90;;;;;;;0.38;68.02;100535.94;105013;1277;72967;-73
2022/04/02 01:07:19;;;;;;;3.30;1.10;;;;;;;0.34;68.32;100540.07;105135;1276;61632;-72
2022/04/02 01:09:45;;;;;;;1.70;1.10;;;;;;;0.32;68.33;100540.02;104955;1278;61158;-71
2022/04/02 01:12:12;;;;;;;2.00;0.90;;;;;;;0.29;68.52;100539.54;104927;1277;62048;-72
2022/04/02 01:14:39;;;;;;;1.50;1.00;;;;;;;0.28;68.51;100540.87;105053;1277;71327;-74
2022/04/02 01:17:08;;;;;;;2.50;1.50;;;;;;;0.26;68.66;100540.84;104965;1277;73039;-71
2022/04/02 01:19:43;;;;;;;4.50;1.30;;;;;;;0.25;68.77;100545.60;105048;1278;62924;-71
2022/04/02 01:22:09;;;;;;;2.00;1.10;;;;;;;0.23;69.00;100548.53;104980;1278;61201;-72
2022/04/02 01:24:36;;;;;;;4.10;1.00;;;;;;;0.20;69.16;100549.99;104944;1276;74972;-71
2022/04/02 01:27:04;;;;;;;2.40;1.10;;;;;;;0.16;69.43;100547.77;104969;1277;71828;-72
2022/04/02 01:29:32;;;;;;;2.60;0.80;;;;;;;0.14;69.49;100546.58;105030;1277;73974;-73
2022/04/02 01:31:59;;;;;;;2.70;1.00;;;;;;;0.10;69.89;100552.77;104857;1278;61422;-70
2022/04/02 01:34:28;;;;;;;2.20;1.10;;;;;;;0.05;70.30;100555.77;104957;1276;61454;-72
2022/04/02 01:36:55;;;;;;;2.80;1.10;;;;;;;-0.01;70.73;100559.09;104992;1278;75010;-73
2022/04/02 01:39:21;;;;;;;1.80;1.20;;;;;;;-0.04;70.72;100558.48;104979;1278;61252;-71
2022/04/02 01:41:48;;;;;;;2.30;1.10;;;;;;;-0.08;70.93;100564.17;104860;1278;73066;-74
2022/04/02 01:44:15;;;;;;;2.90;1.10;;;;;;;-0.14;71.21;100564.19;104948;1277;61367;-71
2022/04/02 01:46:41;;;;;;;4.20;1.30;;;;;;;-0.17;71.20;100563.95;104932;1277;61395;-71
2022/04/02 01:49:08;;;;;;;2.70;1.30;;;;;;;-0.22;71.48;100566.66;104985;1278;61358;-72
2022/04/02 01:51:35;;;;;;;1.30;0.90;;;;;;;-0.25;71.76;100570.94;104922;1277;71295;-72
2022/04/02 01:54:01;;;;;;;1.90;1.00;;;;;;;-0.30;72.25;100572.85;104921;1277;74018;-72
2022/04/02 01:56:31;;;;;;;2.90;1.10;;;;;;;-0.33;72.27;100583.66;104910;1278;61285;-71
2022/04/02 01:59:09;;;;;;;2.00;0.90;;;;;;;-0.37;72.37;100585.83;104940;1279;61256;-71
2022/04/02 02:01:35;;;;;;;1.80;1.10;;;;;;;-0.40;72.56;100585.70;105017;1278;76231;-73
2022/04/02 02:04:03;;;;;;;0.30;0.30;;;;;;;-0.43;72.89;100588.15;104893;1278;72193;-72
2022/04/02 02:06:31;;;;;;;2.00;0.90;;;;;;;-0.45;73.10;100589.52;104893;1277;73001;-72
2022/04/02 02:08:58;;;;;;;2.60;1.10;;;;;;;-0.46;73.19;100591.17;104998;1276;61606;-71
2022/04/02 02:11:26;;;;;;;2.60;1.10;;;;;;;-0.48;73.30;100595.27;104987;1277;61370;-72
2022/04/02 02:13:52;;;;;;;2.40;1.20;;;;;;;-0.50;73.10;100591.07;104892;1277;75993;-73
2022/04/02 02:16:19;;;;;;;6.20;1.60;;;;;;;-0.53;73.24;100596.80;105089;1277;71398;-73
2022/04/02 02:18:46;;;;;;;2.70;1.20;;;;;;;-0.56;73.57;100594.98;104876;1277;72975;-71
2022/04/02 02:21:15;;;;;;;1.60;1.00;;;;;;;-0.60;73.40;100595.05;104959;1279;61341;-73
2022/04/02 02:23:42;;;;;;;2.80;1.40;;;;;;;-0.64;73.60;100595.30;104948;1277;61252;-72
2022/04/02 02:26:09;;;;;;;2.10;1.60;;;;;;;-0.67;73.57;100597.42;104863;1279;75154;-73
2022/04/02 02:28:36;;;;;;;2.80;1.10;;;;;;;-0.70;73.70;100600.64;105335;1279;71374;-71
2022/04/02 02:31:05;;;;;;;2.40;0.90;;;;;;;-0.74;74.16;100599.34;104864;1277;72917;-72
2022/04/02 02:36:18;;;;;;;;;;;;;;;-0.82;74.41;100596.38;104931;1278;61178;-73
2022/04/02 02:38:56;;;;;;;;;;;;;;;;;;;;;
2022/04/02 02:41:23;;;;;;;2.50;1.50;;;;;;;-0.88;74.13;100604.73;105048;1277;72371;-71
2022/04/02 02:43:50;;;;;;;1.10;0.70;;;;;;;-0.91;74.25;100611.77;104993;1277;72890;-72
2022/04/02 02:46:20;;;;;;;2.70;1.50;;;;;;;-0.96;74.65;100616.45;104839;1279;61159;-72
2022/04/02 02:48:47;;;;;;;3.50;1.90;;;;;;;-1.02;75.10;100616.29;104920;1278;61645;-73
2022/04/02 02:51:14;;;;;;;3.60;1.60;;;;;;;-1.06;74.79;100621.24;104975;1277;75080;-73
2022/04/02 02:53:41;;;;;;;1.70;0.80;;;;;;;-1.11;75.24;100620.02;104886;1278;72393;-70
2022/04/02 02:56:08;;;;;;;1.90;1.00;;;;;;;-1.15;75.31;100621.33;104881;1278;74350;-72
2022/04/02 02:58:35;;;;;;;2.10;1.30;;;;;;;-1.19;75.35;100623.34;104948;1277;62171;-71
2022/04/02 03:01:02;;;;;;;2.00;0.80;;;;;;;-1.24;75.58;100622.39;105208;1278;61783;-72
2022/04/02 03:03:31;;;;;;;4.50;1.60;;;;;;;-1.28;75.85;100619.04;104885;1278;75758;-71
2022/04/02 03:06:01;;;;;;;3.70;1.60;;;;;;;-1.32;75.64;100616.69;104994;1277;71842;-71
2022/04/02 03:08:27;;;;;;;3.80;1.60;;;;;;;-1.36;75.96;100618.86;104844;1277;74004;-72
2022/04/02 03:10:55;;;;;;;3.60;1.60;;;;;;;-1.39;76.50;100620.80;104964;1278;61199;-72
2022/04/02 03:13:21;;;;;;;1.80;1.10;;;;;;;-1.42;76.83;100622.23;104946;1279;61240;-73
2022/04/02 03:15:48;;;;;;;3.10;1.20;;;;;;;-1.41;76.50;100628.27;104977;1277;61265;-72
2022/04/02 03:18:15;;;;;;;1.70;1.00;;;;;;;-1.42;76.53;100627.77;105009;1277;71283;-73
2022/04/02 03:20:41;;;;;;;3.60;1.70;;;;;;;-1.44;76.88;100630.98;104907;1278;73366;-72
2022/04/02 03:23:09;;;;;;;3.50;1.40;;;;;;;-1.44;76.72;100633.94;104857;1277;61357;-73
2022/04/02 03:25:36;;;;;;;2.30;1.30;;;;;;;-1.45;76.99;100631.61;105000;1277;61160;-70
2022/04/02 03:28:04;;;;;;;2.30;1.30;;;;;;;-1.46;77.15;100635.32;104987;1278;76075;-72
2022/04/02 03:30:31;;;;;;;3.00;1.50;;;;;;;-1.48;77.16;100635.42;104974;1277;72381;-73
2022/04/02 03:32:57;;;;;;;2.80;0.60;;;;;;;-1.51;77.40;100634.75;104956;1278;73203;-73
2022/04/02 03:35:25;;;;;;;1.50;0.80;;;;;;;-1.52;77.48;100635.88;104863;1278;61339;-72
2022/04/02 03:37:53;;;;;;;4.40;1.70;;;;;;;-1.55;78.12;100639.35;105001;1277;61736;-72
2022/04/02 03:40:23;;;;;;;4.00;1.90;;;;;;;-1.56;77.75;100644.28;105069;1281;74970;-73
2022/04/02 03:42:54;;;;;;;3.20;1.70;;;;;;;-1.57;77.82;100646.41;104927;1278;71594;-73
2022/04/02 03:45:26;;;;;;;5.60;1.90;;;;;;;-1.59;77.82;100647.23;104948;1277;74044;-72
2022/04/02 03:47:52;;;;;;;2.70;1.00;;;;;;;-1.61;78.15;100648.59;105064;1277;61522;-72
2022/04/02 03:50:20;;;;;;;4.20;1.40;;;;;;;-1.63;78.65;100649.77;104966;1277;61674;-75
2022/04/02 03:52:47;;;;;;;2.70;1.60;;;;;;;-1.65;78.60;100650.95;104901;1278;76633;-76
2022/04/02 03:55:14;;;;;;;1.90;0.70;;;;;;;-1.68;78.73;100652.98;104977;1278;72411;-74
2022/04/02 03:57:41;;;;;;;2.60;1.30;;;;;;;-1.69;78.96;100654.99;104937;1277;74105;-73
2022/04/02 04:00:12;;;;;;;3.50;1.90;;;;;;;-1.71;78.96;100655.78;105041;1277;61418;-71
2022/04/02 04:02:38;;;;;;;1.90;1.30;;;;;;;-1.72;78.84;100657.39;104958;1277;61221;-71
2022/04/02 04:05:08;;;;;;;2.30;1.40;;;;;;;-1.73;79.14;100659.54;104939;1278;74901;-72
2022/04/02 04:07:38;;;;;;;4.80;1.70;;;;;;;-1.74;79.26;100660.66;104929;1278;72496;-70
2022/04/02 04:10:05;;;;;;;3.20;1.60;;;;;;;-1.75;78.98;100660.58;104945;1277;74069;-72
2022/04/02 04:12:32;;;;;;;3.40;1.80;;;;;;;-1.77;79.23;100662.23;105005;1278;61494;-72
2022/04/02 04:14:59;;;;;;;1.90;0.90;;;;;;;-1.79;79.52;100666.87;104936;1277;62493;-71
2022/04/02 04:17:26;;;;;;;5.50;1.80;;;;;;;-1.81;79.73;100667.67;104914;1278;74955;-69
2022/04/02 04:19:55;;;;;;;4.40;2.10;;;;;;;-1.81;79.44;100669.42;104950;1277;72609;-71
2022/04/02 04:22:23;;;;;;;3.00;1.50;;;;;;;-1.84;79.64;100672.05;104913;1277;72671;-72
2022/04/02 04:24:58;;;;;;;2.60;1.20;;;;;;;-1.86;79.54;100676.83;104926;1277;61457;-73
2022/04/02 04:27:25;;;;;;;3.30;1.80;;;;;;;-1.88;79.71;100681.46;104915;1277;61269;-73
2022/04/02 04:29:51;;;;;;;3.90;1.40;;;;;;;-1.89;80.04;100681.23;104963;1278;74789;-71
2022/04/02 04:32:27;;;;;;;6.00;2.20;;;;;;;-1.90;80.20;100683.48;105017;1277;71349;-72
2022/04/02 04:34:56;;;;;;;4.60;1.40;;;;;;;-1.90;80.11;100687.84;104969;1277;74065;-74
2022/04/02 04:37:26;;;;;;;3.20;1.20;;;;;;;-1.91;79.99;100691.55;104943;1277;62426;-73
2022/04/02 04:39:53;;;;;;;4.80;1.50;;;;;;;-1.91;79.87;100693.63;104879;1278;61257;-71
2022/04/02 04:42:40;;;;;;;1.70;1.10;;;;;;;-1.92;80.27;100695.77;104860;1277;75099;-73
2022/04/02 04:45:07;;;;;;;6.30;1.70;;;;;;;-1.92;80.13;100696.99;104871;1277;72875;-75
2022/04/02 04:47:33;;;;;;;2.00;1.00;;;;;;;-1.94;80.01;100695.02;104902;1277;73300;-72
2022/04/02 04:50:06;;;;;;;5.40;1.80;;;;;;;-1.91;80.13;100700.08;104950;1277;63307;-74
2022/04/02 04:52:34;;;;;;;2.20;1.30;;;;;;;-1.90;80.08;100703.30;105035;1277;61257;-73
2022/04/02 04:55:01;;;;;;;3.40;1.70;;;;;;;-1.88;79.81;100710.42;104915;1277;75351;-72
2022/04/02 04:57:38;;;;;;;2.40;1.30;;;;;;;-1.86;80.05;100712.92;104920;1278;70912;-74
2022/04/02 05:00:06;;;;;;;2.50;1.40;;;;;;;-1.83;80.12;100715.86;104895;1278;75124;-73
2022/04/02 05:02:35;;;;;;;1.60;0.90;;;;;;;-1.80;79.98;100719.15;104806;1278;61340;-73
2022/04/02 05:05:12;;;;;;;2.30;1.10;;;;;;;-1.77;79.80;100720.19;104851;1278;61310;-72
2022/04/02 05:07:54;;;;;;;2.70;1.40;;;;;;;-1.73;79.61;100722.53;104976;1277;73660;-72
2022/04/02 05:10:21;;;;;;;2.10;1.30;;;;;;;-1.70;79.41;100724.89;104952;1277;71261;-72
2022/04/02 05:13:08;;;;;;;2.30;1.60;;;;;;;-1.64;79.34;100724.57;104908;1277;73993;-73
2022/04/02 05:15:40;;;;;;;5.70;2.20;;;;;;;-1.60;79.04;100728.63;104913;1277;61272;-72
2022/04/02 05:18:06;;;;;;;2.10;1.30;;;;;;;-1.55;79.10;100728.34;104919;1277;61276;-71
2022/04/02 05:20:34;;;;;;;3.60;2.00;;;;;;;-1.51;78.92;100726.69;104984;1277;76138;-72
2022/04/02 05:23:01;;;;;;;4.90;2.00;;;;;;;-1.47;78.73;100730.23;104928;1277;70469;-72
2022/04/02 05:25:27;;;;;;;2.40;1.10;;;;;;;-1.42;78.47;100727.86;104942;1277;74133;-72
2022/04/02 05:27:57;;;;;;;6.40;2.90;;;;;;;-1.36;78.35;100729.77;104926;1277;61597;-73
2022/04/02 05:30:26;;;;;;;3.40;0.90;;;;;;;-1.31;78.18;100730.83;104959;1277;61242;-71
2022/04/02 05:32:59;;;;;;;4.00;1.70;;;;;;;-1.26;77.89;100736.38;105262;1277;76001;-71
2022/04/02 05:35:25;;;;;;;7.20;1.30;;;;;;;-1.20;77.61;100738.48;104958;1277;72318;-72
2022/04/02 05:37:56;;;;;;;3.30;1.50;;;;;;;-1.16;77.18;100744.09;105176;1277;72408;-71
2022/04/02 05:40:36;;;;;;;3.00;1.70;;;;;;;-1.10;77.25;100742.31;105018;1277;61247;-70
2022/04/02 05:43:03;;;;;;;5.80;1.60;;;;;;;-1.04;77.19;100744.34;104969;1277;61163;-71
2022/04/02 05:45:29;;;;;;;3.20;1.50;;;;;;;-0.95;76.88;100752.10;104923;1277;74692;-72
2022/04/02 05:48:12;;;;;;;1.90;1.20;;;;;;;-0.88;76.61;100752.16;104918;1277;72381;-72
2022/04/02 05:50:42;;;;;;;2.70;1.00;;;;;;;-0.80;75.78;100753.25;104876;1277;74609;-72
2022/04/02 05:53:19;;;;;;;3.30;1.90;;;;;;;-0.75;75.80;100760.55;104949;1277;61189;-71
2022/04/02 05:55:52;;;;;;;2.50;1.60;;;;;;;-0.70;75.60;100762.98;104925;1277;61262;-72
2022/04/02 05:58:19;;;;;;;2.70;1.40;;;;;;;-0.66;75.31;100763.77;105702;1277;76285;-72
2022/04/02 06:00:48;;;;;;;3.60;1.60;;;;;;;-0.62;75.19;100765.92;105726;1277;72289;-69
2022/04/02 06:03:15;;;;;;;4.20;1.70;;;;;;;-0.58;75.10;100771.40;105066;1277;73043;-70
2022/04/02 06:05:48;;;;;;;2.40;1.60;;;;;;;-0.53;74.88;100774.23;105134;1277;61258;-71
2022/04/02 06:08:25;;;;;;;3.60;1.90;;;;;;;-0.52;74.56;100778.48;105287;1277;61297;-72
2022/04/02 06:10:52;;;;;;;4.00;1.90;;;;;;;-0.47;74.43;100783.50;105010;1277;75945;-71
2022/04/02 06:13:22;;;;;;;2.10;1.10;;;;;;;-0.41;74.50;100789.05;105077;1277;71460;-73
2022/04/02 06:15:52;;;;;;;3.20;1.10;;;;;;;-0.36;74.28;100792.01;104929;1277;72022;-73
2022/04/02 06:18:19;;;;;;;3.00;1.30;;;;;;;-0.32;73.92;100793.69;104911;1276;61554;-73
2022/04/02 06:21:12;;;;;;;2.30;1.00;;;;;;;-0.29;74.22;100799.35;105120;1277;61270;-72
2022/04/02 06:23:53;;;;;;;2.40;1.40;;;;;;;-0.24;73.97;100802.52;105084;1277;74459;-70
2022/04/02 06:26:20;;;;;;;3.60;1.40;;;;;;;-0.18;73.80;100803.88;104960;1277;72531;-72
2022/04/02 06:28:54;;;;;;;3.80;2.00;;;;;;;-0.15;73.66;100807.15;104878;1277;72637;-73
2022/04/02 06:31:30;;;;;;;4.40;1.80;;;;;;;-0.11;73.61;100810.67;104982;1277;62252;-71
2022/04/02 06:33:57;;;;;;;2.40;1.20;;;;;;;-0.05;73.73;100816.55;104860;1278;61179;-71
2022/04/02 06:36:24;;;;;;;3.10;1.60;;;;;;;-0.00;73.46;100821.25;105010;1277;74944;-70
2022/04/02 06:38:51;;;;;;;1.60;0.90;;;;;;;0.04;73.40;100822.52;104920;1277;71668;-72
2022/04/02 06:41:21;;;;;;;3.90;1.40;;;;;;;0.07;72.99;100823.20;105069;1276;73163;-71
2022/04/02 06:43:47;;;;;;;2.90;1.50;;;;;;;0.14;72.91;100824.99;104936;1277;61244;-71
2022/04/02 06:46:14;;;;;;;3.10;1.50;;;;;;;0.18;72.74;100829.38;104927;1277;61279;-75
2022/04/02 06:48:41;;;;;;;4.10;1.70;;;;;;;0.23;72.49;100823.48;105016;1277;75155;-72
2022/04/02 06:51:10;;;;;;;2.40;0.80;;;;;;;0.31;72.50;100830.44;105076;1277;71512;-71
2022/04/02 06:53:37;;;;;;;6.70;2.00;;;;;;;0.36;71.84;100829.23;105051;1277;72984;-71
2022/04/02 06:56:07;;;;;;;2.80;1.50;;;;;;;0.39;71.64;100828.81;104887;1277;61254;-70
2022/04/02 06:58:39;;;;;;;4.60;1.80;;;;;;;0.45;71.81;100832.43;105038;1277;61767;-69
2022/04/02 07:01:13;;;;;;;6.40;1.80;;;;;;;0.52;71.73;100837.88;105281;1278;76044;-71
2022/04/02 07:03:40;;;;;;;4.20;1.50;;;;;;;0.59;71.39;100836.48;105118;1278;71208;-70
2022/04/02 07:06:08;;;;;;;4.70;1.60;;;;;;;0.67;71.28;100838.05;105349;1277;72879;-70
2022/04/02 07:08:38;;;;;;;2.10;1.20;;;;;;;0.74;70.50;100837.39;104949;1278;61694;-70
2022/04/02 07:11:08;;;;;;;2.50;1.30;;;;;;;0.80;70.28;100840.27;105116;1277;61390;-70
2022/04/02 07:13:35;;;;;;;2.80;1.60;;;;;;;0.87;70.08;100841.89;105035;1277;74998;-72
2022/04/02 07:16:03;;;;;;;2.30;0.80;;;;;;;0.95;70.02;100842.71;105106;1277;71057;-70
2022/04/02 07:18:33;;;;;;;5.80;2.10;;;;;;;1.02;69.74;100843.58;105065;1277;73760;-71
2022/04/02 07:21:02;;;;;;;3.30;1.60;;;;;;;1.09;69.56;100845.33;105015;1276;61483;-70
2022/04/02 07:23:30;;;;;;;5.80;1.70;;;;;;;1.13;69.00;100848.02;105100;1277;60878;-71
2022/04/02 07:25:57;;;;;;;4.10;1.80;;;;;;;1.18;68.83;100855.52;104998;1277;76090;-70
2022/04/02 07:28:25;;;;;;;3.50;1.70;;;;;;;1.23;68.91;100854.10;105057;1277;71922;-71
2022/04/02 07:30:52;;;;;;;3.20;1.60;;;;;;;1.29;68.84;100861.70;105026;1277;74054;-68
2022/04/02 07:33:19;;;;;;;3.10;1.90;;;;;;;1.36;68.68;100859.95;105076;1277;60005;-71
2022/04/02 07:36:02;;;;;;;2.40;1.40;;;;;;;1.44;68.28;100859.59;105048;1277;61378;-70
2022/04/02 07:38:31;;;;;;;3.60;1.40;;;;;;;1.48;67.90;100854.23;105126;1277;73930;-69
2022/04/02 07:41:12;;;;;;;1.50;0.90;;;;;;;1.52;67.70;100861.79;105214;1277;70020;-70
2022/04/02 07:44:17;;;;;;;3.50;1.60;;;;;;;1.53;67.01;100859.58;105109;1277;72835;-70
2022/04/02 07:46:47;;;;;;;3.10;1.20;;;;;;;1.64;67.44;100860.71;105141;1277;61276;-69
2022/04/02 07:49:22;;;;;;;3.60;1.90;;;;;;;1.72;67.14;100864.50;105277;1277;62550;-69
2022/04/02 07:51:53;;;;;;;3.20;1.40;;;;;;;1.79;66.83;100863.23;105051;1277;74672;-70
2022/04/02 07:54:25;;;;;;;3.00;1.00;;;;;;;1.82;66.15;100867.17;105584;1277;72540;-69
2022/04/02 07:57:05;;;;;;;3.30;1.70;;;;;;;1.88;66.02;100869.58;105130;1277;74062;-70
2022/04/02 07:59:38;;;;;;;3.00;1.40;;;;;;;1.97;66.24;100875.11;105230;1277;61150;-71
2022/04/02 08:02:36;;;;;;;3.40;1.30;;;;;;;2.07;66.10;100872.00;105877;1277;61785;-73
2022/04/02 08:05:02;;;;;;;4.50;2.00;;;;;;;2.15;65.34;100873.52;105260;1277;73739;-71
2022/04/02 08:07:30;;;;;;;4.10;1.70;;;;;;;2.24;64.82;100874.02;104999;1277;72819;-69
2022/04/02 08:09:59;;;;;;;2.60;1.50;;;;;;;2.33;64.95;100877.84;105094;1277;74515;-71
2022/04/02 08:12:26;;;;;;;3.00;1.80;;;;;;;2.41;64.12;100876.89;104983;1277;61783;-70
2022/04/02 08:14:56;;;;;;;2.40;1.30;;;;;;;2.49;63.80;100878.45;105053;1277;61478;-68
2022/04/02 08:17:22;;;;;;;4.40;1.50;;;;;;;2.59;63.84;100880.63;105031;1277;76434;-70
2022/04/02 08:19:50;;;;;;;2.50;1.50;;;;;;;2.68;63.15;100884.80;105039;1277;72364;-70
2022/04/02 08:22:17;;;;;;;4.00;1.70;;;;;;;2.75;62.75;100889.11;105032;1277;73883;-69
2022/04/02 08:24:44;;;;;;;2.80;1.20;;;;;;;2.87;63.27;100888.38;105113;1277;61225;-71
2022/04/02 08:27:29;;;;;;;5.50;1.70;;;;;;;2.95;62.00;100890.52;104946;1277;61184;-69
2022/04/02 08:30:06;;;;;;;6.60;2.10;;;;;;;3.01;61.27;100891.44;105025;1277;75165;-68
2022/04/02 08:33:11;;;;;;;3.30;1.70;;;;;;;3.13;61.81;100896.95;104951;1277;72392;-69
2022/04/02 08:35:50;;;;;;;4.90;1.70;;;;;;;3.35;62.49;100903.42;105000;1277;72727;-69
2022/04/02 08:38:25;;;;;;;2.40;0.90;;;;;;;3.60;62.80;100903.35;105056;1277;61879;-70
2022/04/02 08:41:13;;;;;;;;;;;;;;;3.81;60.52;100904.32;104958;1277;61888;-68
2022/04/02 08:44:10;;;;;;;2.10;1.20;;;;;;;3.84;57.86;100897.23;104962;1277;76087;-71
2022/04/02 08:46:48;;;;;;;3.50;1.40;;;;;;;3.83;57.85;100899.54;104958;1277;70365;-69
2022/04/02 08:49:36;;;;;;;2.70;1.30;;;;;;;4.02;58.56;100904.95;105000;1277;73168;-70
2022/04/02 08:52:14;;;;;;;2.90;1.30;;;;;;;4.26;57.43;100904.92;104985;1277;61273;-70
2022/04/02 08:55:04;;;;;;;4.10;1.50;;;;;;;4.46;55.20;100903.73;105112;1277;61193;-72
2022/04/02 08:57:53;;;;;;;2.20;1.30;;;;;;;4.65;54.10;100903.38;104972;1276;76938;-68
2022/04/02 09:00:27;;;;;;;2.60;1.40;;;;;;;4.78;52.91;100906.27;104906;1277;71564;-71
2022/04/02 09:02:53;;;;;;;4.50;1.60;;;;;;;4.88;53.08;100908.55;105217;1275;72986;-72
2022/04/02 09:05:39;;;;;;;5.10;1.80;;;;;;;5.00;51.91;100907.54;105029;1277;61687;-71
2022/04/02 09:08:27;;;;;;;2.80;1.30;;;;;;;5.06;49.83;100908.09;105058;1278;61234;-71
2022/04/02 09:11:25;;;;;;;2.00;0.90;;;;;;;5.20;50.25;100906.16;105166;1277;74762;-70
2022/04/02 09:14:16;;;;;;;2.20;1.10;;;;;;;5.24;48.67;100903.35;105017;1277;72495;-72
2022/04/02 09:17:03;;;;;;;4.10;1.10;;;;;;;5.29;49.12;100908.02;105065;1276;73296;-70
2022/04/02 09:20:03;;;;;;;1.60;0.90;;;;;;;5.33;48.87;100910.30;105034;1277;61249;-71
2022/04/02 09:22:41;;;;;;;3.40;1.30;;;;;;;5.38;48.90;100909.71;104991;1277;62436;-70
2022/04/02 09:25:27;;;;;;;3.10;1.20;;;;;;;5.43;48.63;100904.11;105002;1278;76014;-70
2022/04/02 09:28:11;;;;;;;2.40;1.30;;;;;;;5.51;49.47;100906.40;104936;1277;71629;-70
2022/04/02 09:30:51;;;;;;;3.70;1.50;;;;;;;5.58;48.75;100907.70;105050;1276;72948;-70
2022/04/02 09:34:03;;;;;;;6.90;1.40;;;;;;;5.59;48.36;100908.52;105180;1277;61753;-71
2022/04/02 09:36:31;;;;;;;2.20;1.20;;;;;;;5.56;48.47;100907.03;105112;1277;61136;-69
2022/04/02 09:39:05;;;;;;;2.70;1.40;;;;;;;5.53;48.56;100910.23;104944;1277;74996;-71
2022/04/02 09:41:51;;;;;;;2.10;1.20;;;;;;;5.61;48.94;100908.50;105047;1277;72948;-71
2022/04/02 09:44:45;;;;;;;3.40;1.20;;;;;;;5.76;47.88;100905.42;105003;1276;74066;-70
2022/04/02 09:47:23;;;;;;;;;;;;;;;6.04;47.42;100897.44;104983;1278;61369;-70
2022/04/02 09:50:11;;;;;;;1.90;1.20;;;;;;;6.12;46.63;100898.45;105046;1277;61355;-70
2022/04/02 09:53:03;;;;;;;1.20;0.90;;;;;;;5.99;46.50;100902.95;104912;1278;75140;-70
2022/04/02 09:56:18;;;;;;;2.50;1.30;;;;;;;5.68;46.17;100909.39;105126;1276;71864;-69
2022/04/02 09:59:05;;;;;;;2.80;1.40;;;;;;;5.51;47.28;100909.75;104210;1285;74416;-72
2022/04/02 10:01:39;;;;;;;2.80;1.30;;;;;;;5.44;47.19;100912.80;104298;1285;61486;-70
2022/04/02 10:04:25;;;;;;;2.50;1.10;;;;;;;5.44;47.59;100912.46;104681;1277;61817;-69
2022/04/02 10:06:55;;;;;;;3.80;1.50;;;;;;;5.38;46.55;100910.88;105062;1277;76094;-70
2022/04/02 10:09:27;;;;;;;3.60;1.50;;;;;;;5.21;45.66;100906.73;105053;1277;72217;-70
2022/04/02 10:12:02;;;;;;;3.80;1.90;;;;;;;5.08;46.43;100911.20;105026;1276;73145;-68
2022/04/02 10:14:30;;;;;;;5.10;1.80;;;;;;;5.10;47.53;100911.04;105245;1277;61733;-69
2022/04/02 10:17:03;;;;;;;4.70;1.80;;;;;;;5.21;47.55;100909.42;105069;1277;61159;-69
2022/04/02 10:19:31;;;;;;;2.20;1.30;;;;;;;5.38;46.69;100909.46;105165;1277;75026;-70
2022/04/02 10:22:06;;;;;;;2.70;1.30;;;;;;;5.52;45.15;100907.91;105001;1278;71647;-70
2022/04/02 10:24:37;;;;;;;2.50;1.30;;;;;;;5.67;45.15;100907.27;105212;1276;74020;-69
2022/04/02 10:27:06;;;;;;;2.60;1.20;;;;;;;5.79;44.46;100902.52;105048;1276;61356;-69
2022/04/02 10:30:11;;;;;;;3.60;1.20;;;;;;;5.81;43.55;100901.83;105121;1276;61243;-69
2022/04/02 10:32:51;;;;;;;2.30;1.20;;;;;;;5.69;43.10;100904.05;104961;1277;75003;-69
2022/04/02 10:35:20;;;;;;;2.70;1.40;;;;;;;5.68;43.82;100901.91;105125;1276;71946;-71
2022/04/02 10:38:29;;;;;;;2.30;1.30;;;;;;;5.75;44.82;100903.95;105003;1278;72926;-69
2022/04/02 10:40:56;;;;;;;3.60;1.10;;;;;;;5.73;45.69;100898.30;104895;1277;61406;-70
2022/04/02 10:43:28;;;;;;;2.90;1.40;;;;;;;5.68;45.72;100904.70;105085;1277;61638;-71
2022/04/02 10:45:57;;;;;;;3.40;1.40;;;;;;;5.56;45.82;100907.22;105107;1277;75061;-69
2022/04/02 10:49:03;;;;;;;3.70;1.30;;;;;;;5.36;45.59;100912.12;105084;1277;70717;-67
2022/04/02 10:51:43;;;;;;;;;;;;;;;;;;;;;
2022/04/02 10:54:13;;;;;;;1.80;1.00;;;;;;;5.26;46.39;100917.01;105208;1276;61402;-69
2022/04/02 10:56:41;;;;;;;2.90;1.30;;;;;;;5.30;46.44;100919.50;104983;1276;61230;-69
2022/04/02 10:59:10;;;;;;;3.70;1.70;;;;;;;5.39;46.52;100921.02;104929;1277;75024;-69
2022/04/02 11:01:46;;;;;;;2.30;1.40;;;;;;;5.43;46.07;100920.27;105032;1277;72392;-71
2022/04/02 11:04:32;;;;;;;3.30;1.30;;;;;;;5.55;45.72;100918.02;104993;1277;74226;-73
2022/04/02 11:07:00;;;;;;;2.90;1.30;;;;;;;5.75;46.53;100917.30;105011;1276;61258;-71
2022/04/02 11:09:39;;;;;;;1.70;1.00;;;;;;;5.97;46.00;100909.13;104891;1277;61370;-71
2022/04/02 11:12:08;;;;;;;1.50;0.90;;;;;;;6.32;46.29;100908.60;104996;1276;75968;-70
2022/04/02 11:14:48;;;;;;;3.20;1.80;;;;;;;6.67;45.54;100907.46;105006;1277;72470;-71
2022/04/02 11:17:41;;;;;;;2.80;1.30;;;;;;;7.00;43.11;100904.81;105099;1276;74017;-70
2022/04/02 11:20:14;;;;;;;1.70;1.00;;;;;;;7.41;42.24;100897.93;105180;1276;61398;-72
2022/04/02 11:22:51;;;;;;;2.80;1.50;;;;;;;7.78;41.27;100893.96;104916;1276;61363;-70
2022/04/02 11:25:44;;;;;;;5.10;1.40;;;;;;;7.92;39.83;100897.46;105131;1277;76025;-69
2022/04/02 11:28:32;;;;;;;1.90;1.20;;;;;;;7.75;39.98;100898.13;105036;1277;72592;-72
2022/04/02 11:31:05;;;;;;;2.00;0.90;;;;;;;7.42;39.70;100899.73;105047;1278;73146;-69
2022/04/02 11:33:33;;;;;;;2.50;1.20;;;;;;;7.07;40.87;100909.77;104665;1277;448449;-70
2022/04/02 11:36:07;;;;;;;3.00;1.30;;;;;;;6.84;41.74;100910.39;104959;1277;61960;-70
2022/04/02 11:38:56;;;;;;;1.80;0.80;;;;;;;6.60;40.98;100920.36;105232;1276;74964;-68
2022/04/02 11:41:27;;;;;;;1.80;1.10;;;;;;;6.42;41.02;100919.38;105090;1278;72516;-70
2022/04/02 11:44:16;;;;;;;3.20;1.10;;;;;;;6.34;41.46;100915.64;105078;1277;75187;-68
2022/04/02 11:47:06;;;;;;;2.10;1.10;;;;;;;6.38;41.64;100918.02;104976;1278;61356;-71
2022/04/02 11:49:39;;;;;;;3.10;1.10;;;;;;;6.55;42.11;100915.27;105071;1276;61237;-69
2022/04/02 11:52:12;;;;;;;2.40;1.00;;;;;;;6.70;41.57;100919.58;105123;1276;73932;-71
2022/04/02 11:54:49;;;;;;;2.40;1.50;;;;;;;6.94;40.53;100916.13;105125;1277;71528;-71